createdAt,value
2019-04-22T02:45:26.586Z,99.90
2019-04-22T02:55:27.576Z,99.90
2019-04-22T03:15:50.897Z,99.40
2019-04-22T03:36:25.052Z,99.30
2019-04-22T03:46:02.038Z,99.10
2019-04-22T03:56:49.583Z,98.30
2019-04-22T04:06:29.639Z,97.40
2019-04-22T04:16:36.877Z,97.00
2019-04-22T05:07:09.191Z,94.90
2019-04-22T05:17:15.978Z,95.00
2019-04-22T05:37:22.790Z,96.90
2019-04-22T05:47:26.179Z,96.60
2019-04-22T05:57:31.639Z,96.00
2019-04-22T06:07:40.326Z,95.40
2019-04-22T06:17:54.785Z,94.30
2019-04-22T06:27:58.832Z,94.50
2019-04-22T06:48:13.128Z,93.60
2019-04-22T06:58:15.270Z,92.90
2019-04-22T07:29:01.218Z,93.80
2019-04-22T07:39:35.441Z,93.10
2019-04-22T07:49:48.963Z,91.70
2019-04-22T08:00:02.912Z,96.20
2019-04-22T08:21:07.632Z,99.90
2019-04-22T08:31:18.029Z,99.90
2019-04-22T09:01:32.669Z,99.90
2019-04-22T09:11:52.946Z,96.00
2019-04-22T09:22:01.908Z,90.20
2019-04-22T09:42:14.523Z,85.20
2019-04-22T09:52:15.137Z,85.70
2019-04-22T10:12:37.029Z,84.80
2019-04-22T10:32:47.577Z,88.10
2019-04-22T10:42:33.493Z,99.40
2019-04-22T11:35:21.880Z,53.20
2019-04-22T11:45:28.774Z,54.10
2019-04-22T11:55:34.952Z,53.40
2019-04-22T12:05:41.685Z,50.50
2019-04-22T12:15:49.023Z,53.90
2019-04-22T12:26:02.073Z,54.80
2019-04-22T12:36:02.394Z,51.40
2019-04-22T12:46:08.370Z,46.60
2019-04-22T12:56:15.212Z,49.70
2019-04-22T13:06:23.645Z,49.00
2019-04-22T13:16:29.422Z,48.70
2019-04-22T13:26:35.947Z,46.10
2019-04-22T13:36:48.805Z,48.00
2019-04-22T13:47:11.047Z,45.00
2019-04-22T13:57:19.716Z,45.90
2019-04-22T14:07:10.481Z,40.90
2019-04-22T14:17:18.811Z,38.90
2019-04-22T14:27:34.679Z,37.90
2019-04-22T14:37:32.194Z,36.00
2019-04-22T14:48:07.122Z,39.80
2019-04-22T14:57:45.018Z,41.10
2019-04-22T15:07:50.511Z,38.90
2019-04-22T15:18:13.935Z,42.50
2019-04-22T15:28:19.725Z,41.60
2019-04-22T15:38:26.186Z,44.00
2019-04-22T15:48:37.769Z,44.60
2019-04-22T15:58:43.774Z,47.00
2019-04-22T16:08:49.848Z,48.70
2019-04-22T16:18:56.258Z,51.00
2019-04-22T16:29:03.226Z,50.80
2019-04-22T16:39:11.250Z,49.10
2019-04-22T16:49:17.217Z,48.60
2019-04-22T16:59:22.728Z,51.20
2019-04-22T17:09:29.765Z,54.00
2019-04-22T17:19:35.574Z,55.40
2019-04-22T17:29:41.289Z,58.30
2019-04-22T17:40:02.456Z,64.10
2019-04-22T17:50:24.206Z,68.50
2019-04-22T18:00:20.407Z,71.00
2019-04-22T18:10:35.642Z,70.50
2019-04-22T18:20:35.333Z,71.10
2019-04-22T18:30:38.675Z,71.60
2019-04-22T18:40:53.713Z,72.00
2019-04-22T18:51:20.285Z,73.50
2019-04-22T19:00:59.553Z,74.10
2019-04-22T19:11:35.574Z,75.30
2019-04-22T19:21:32.676Z,76.60
2019-04-22T19:31:45.498Z,77.60
2019-04-22T19:41:58.727Z,78.80
2019-04-22T19:52:12.825Z,79.30
2019-04-22T20:02:22.212Z,79.70
2019-04-22T20:12:30.571Z,78.30
2019-04-22T20:22:38.346Z,77.90
2019-04-22T20:32:44.523Z,77.60
2019-04-22T20:43:04.006Z,78.50
2019-04-22T20:53:06.892Z,79.00
2019-04-22T21:03:00.971Z,79.80
2019-04-22T21:13:15.577Z,80.30
2019-04-22T21:23:19.864Z,81.10
2019-04-22T21:33:26.966Z,81.70
2019-04-22T21:43:42.437Z,81.50
2019-04-22T21:53:58.694Z,82.10
2019-04-22T22:03:55.716Z,81.30
2019-04-22T22:14:01.927Z,82.20
2019-04-22T22:24:13.113Z,82.80
2019-04-22T22:34:16.618Z,83.20
2019-04-22T22:44:11.572Z,84.70
2019-04-22T22:54:30.065Z,86.30
2019-04-22T23:04:39.842Z,87.40
2019-04-22T23:14:44.107Z,88.00
2019-04-22T23:24:50.294Z,88.20
2019-04-22T23:35:03.185Z,88.10
2019-04-22T23:45:15.725Z,88.00
2019-04-22T23:55:21.589Z,88.40
